sensor_id;sensor_type;location;lat;lon;timestamp;P1;durP1;ratioP1;P2;durP2;ratioP2
32323;SDS011;25666;44.350;9.222;2024-01-15T00:01:34;12.23;;;3.92;;
32323;SDS011;25666;44.350;9.222;2024-01-15T00:04:00;10.40;;;3.63;;
32323;SDS011;25666;44.350;9.222;2024-01-15T00:06:25;12.63;;;4.07;;
32323;SDS011;25666;44.350;9.222;2024-01-15T00:08:52;7.93;;;4.22;;
32323;SDS011;25666;44.350;9.222;2024-01-15T00:11:17;11.00;;;3.78;;
32323;SDS011;25666;44.350;9.222;2024-01-15T00:13:43;6.78;;;4.38;;
32323;SDS011;25666;44.350;9.222;2024-01-15T00:16:08;7.25;;;3.38;;
32323;SDS011;25666;44.350;9.222;2024-01-15T00:18:34;16.90;;;3.95;;
32323;SDS011;25666;44.350;9.222;2024-01-15T00:21:00;13.88;;;5.18;;
32323;SDS011;25666;44.350;9.222;2024-01-15T00:23:25;9.20;;;4.05;;
32323;SDS011;25666;44.350;9.222;2024-01-15T00:25:51;10.02;;;4.30;;
32323;SDS011;25666;44.350;9.222;2024-01-15T00:28:16;14.52;;;4.40;;
32323;SDS011;25666;44.350;9.222;2024-01-15T00:30:42;15.55;;;5.15;;
32323;SDS011;25666;44.350;9.222;2024-01-15T00:33:08;11.18;;;4.90;;
32323;SDS011;25666;44.350;9.222;2024-01-15T00:35:33;10.80;;;3.65;;
32323;SDS011;25666;44.350;9.222;2024-01-15T00:37:59;7.18;;;4.57;;
32323;SDS011;25666;44.350;9.222;2024-01-15T00:40:24;7.25;;;3.70;;
32323;SDS011;25666;44.350;9.222;2024-01-15T00:42:50;10.95;;;3.92;;
32323;SDS011;25666;44.350;9.222;2024-01-15T00:45:16;5.30;;;4.10;;
32323;SDS011;25666;44.350;9.222;2024-01-15T00:47:42;13.00;;;3.80;;
32323;SDS011;25666;44.350;9.222;2024-01-15T00:50:07;8.25;;;3.72;;
32323;SDS011;25666;44.350;9.222;2024-01-15T00:52:33;5.65;;;3.65;;
32323;SDS011;25666;44.350;9.222;2024-01-15T00:54:59;11.80;;;3.97;;
32323;SDS011;25666;44.350;9.222;2024-01-15T00:57:24;6.97;;;4.68;;
32323;SDS011;25666;44.350;9.222;2024-01-15T00:59:50;11.48;;;4.10;;
32323;SDS011;25666;44.350;9.222;2024-01-15T01:02:16;12.15;;;3.80;;
32323;SDS011;25666;44.350;9.222;2024-01-15T01:04:41;9.57;;;4.25;;
32323;SDS011;25666;44.350;9.222;2024-01-15T01:07:07;10.73;;;3.70;;
32323;SDS011;25666;44.350;9.222;2024-01-15T01:09:32;10.95;;;3.65;;
32323;SDS011;25666;44.350;9.222;2024-01-15T01:11:58;13.40;;;4.43;;
32323;SDS011;25666;44.350;9.222;2024-01-15T01:14:23;10.65;;;3.65;;
32323;SDS011;25666;44.350;9.222;2024-01-15T01:16:49;13.85;;;3.78;;
32323;SDS011;25666;44.350;9.222;2024-01-15T01:19:15;8.48;;;3.60;;
32323;SDS011;25666;44.350;9.222;2024-01-15T01:21:40;11.93;;;4.18;;
32323;SDS011;25666;44.350;9.222;2024-01-15T01:24:06;11.75;;;3.83;;
32323;SDS011;25666;44.350;9.222;2024-01-15T01:26:31;9.82;;;3.58;;
32323;SDS011;25666;44.350;9.222;2024-01-15T01:28:57;7.65;;;3.53;;
32323;SDS011;25666;44.350;9.222;2024-01-15T01:31:23;14.20;;;4.50;;
32323;SDS011;25666;44.350;9.222;2024-01-15T01:33:49;7.70;;;4.13;;
32323;SDS011;25666;44.350;9.222;2024-01-15T01:36:14;12.77;;;4.85;;
32323;SDS011;25666;44.350;9.222;2024-01-15T01:38:40;9.95;;;4.25;;
32323;SDS011;25666;44.350;9.222;2024-01-15T01:41:06;22.75;;;5.28;;
32323;SDS011;25666;44.350;9.222;2024-01-15T01:43:32;12.95;;;5.18;;
32323;SDS011;25666;44.350;9.222;2024-01-15T01:45:58;9.70;;;4.80;;
32323;SDS011;25666;44.350;9.222;2024-01-15T01:48:25;14.15;;;5.25;;
32323;SDS011;25666;44.350;9.222;2024-01-15T01:50:54;11.38;;;4.70;;
32323;SDS011;25666;44.350;9.222;2024-01-15T01:53:25;11.18;;;4.72;;
32323;SDS011;25666;44.350;9.222;2024-01-15T01:55:52;13.13;;;5.70;;
32323;SDS011;25666;44.350;9.222;2024-01-15T01:58:18;10.30;;;4.75;;
32323;SDS011;25666;44.350;9.222;2024-01-15T02:00:45;9.35;;;5.32;;
32323;SDS011;25666;44.350;9.222;2024-01-15T02:03:12;8.10;;;4.30;;
32323;SDS011;25666;44.350;9.222;2024-01-15T02:05:38;15.70;;;5.57;;
32323;SDS011;25666;44.350;9.222;2024-01-15T02:08:05;10.43;;;5.30;;
32323;SDS011;25666;44.350;9.222;2024-01-15T02:10:31;11.73;;;5.45;;
32323;SDS011;25666;44.350;9.222;2024-01-15T02:12:57;13.05;;;6.05;;
32323;SDS011;25666;44.350;9.222;2024-01-15T02:15:23;15.98;;;5.47;;
32323;SDS011;25666;44.350;9.222;2024-01-15T02:17:58;10.13;;;5.38;;
32323;SDS011;25666;44.350;9.222;2024-01-15T02:20:24;10.07;;;5.32;;
32323;SDS011;25666;44.350;9.222;2024-01-15T02:22:51;14.55;;;5.40;;
32323;SDS011;25666;44.350;9.222;2024-01-15T02:25:17;12.10;;;5.38;;
32323;SDS011;25666;44.350;9.222;2024-01-15T02:27:43;10.80;;;5.60;;
32323;SDS011;25666;44.350;9.222;2024-01-15T02:30:11;22.52;;;5.13;;
32323;SDS011;25666;44.350;9.222;2024-01-15T02:32:40;13.82;;;5.60;;
32323;SDS011;25666;44.350;9.222;2024-01-15T02:35:06;12.52;;;6.63;;
32323;SDS011;25666;44.350;9.222;2024-01-15T02:37:32;9.38;;;5.13;;
32323;SDS011;25666;44.350;9.222;2024-01-15T02:39:57;10.85;;;5.38;;
32323;SDS011;25666;44.350;9.222;2024-01-15T02:42:23;12.07;;;5.88;;
32323;SDS011;25666;44.350;9.222;2024-01-15T02:44:48;12.05;;;5.47;;
32323;SDS011;25666;44.350;9.222;2024-01-15T02:47:14;18.50;;;5.50;;
32323;SDS011;25666;44.350;9.222;2024-01-15T02:49:40;9.82;;;5.47;;
32323;SDS011;25666;44.350;9.222;2024-01-15T02:52:06;13.80;;;5.57;;
32323;SDS011;25666;44.350;9.222;2024-01-15T02:54:31;12.07;;;5.18;;
32323;SDS011;25666;44.350;9.222;2024-01-15T02:56:57;8.88;;;5.30;;
32323;SDS011;25666;44.350;9.222;2024-01-15T02:59:22;17.95;;;4.70;;
32323;SDS011;25666;44.350;9.222;2024-01-15T03:01:48;14.07;;;5.00;;
32323;SDS011;25666;44.350;9.222;2024-01-15T03:04:14;10.90;;;5.55;;
32323;SDS011;25666;44.350;9.222;2024-01-15T03:06:39;11.02;;;5.38;;
32323;SDS011;25666;44.350;9.222;2024-01-15T03:09:05;8.73;;;5.28;;
32323;SDS011;25666;44.350;9.222;2024-01-15T03:11:36;10.25;;;5.55;;
32323;SDS011;25666;44.350;9.222;2024-01-15T03:14:03;11.85;;;5.00;;
32323;SDS011;25666;44.350;9.222;2024-01-15T03:16:28;13.40;;;4.43;;
32323;SDS011;25666;44.350;9.222;2024-01-15T03:18:54;10.95;;;4.80;;
32323;SDS011;25666;44.350;9.222;2024-01-15T03:21:20;13.57;;;4.50;;
32323;SDS011;25666;44.350;9.222;2024-01-15T03:23:45;9.48;;;4.70;;
32323;SDS011;25666;44.350;9.222;2024-01-15T03:26:11;9.88;;;5.22;;
32323;SDS011;25666;44.350;9.222;2024-01-15T03:28:36;12.77;;;4.93;;
32323;SDS011;25666;44.350;9.222;2024-01-15T03:31:02;14.32;;;5.10;;
32323;SDS011;25666;44.350;9.222;2024-01-15T03:33:27;10.68;;;4.90;;
32323;SDS011;25666;44.350;9.222;2024-01-15T03:35:53;10.45;;;5.22;;
32323;SDS011;25666;44.350;9.222;2024-01-15T03:38:19;9.73;;;4.93;;
32323;SDS011;25666;44.350;9.222;2024-01-15T03:40:44;8.45;;;4.65;;
32323;SDS011;25666;44.350;9.222;2024-01-15T03:43:10;10.13;;;4.25;;
32323;SDS011;25666;44.350;9.222;2024-01-15T03:45:35;9.32;;;4.30;;
32323;SDS011;25666;44.350;9.222;2024-01-15T03:48:01;9.85;;;4.68;;
32323;SDS011;25666;44.350;9.222;2024-01-15T03:50:26;7.53;;;4.00;;
32323;SDS011;25666;44.350;9.222;2024-01-15T03:52:52;7.07;;;4.80;;
32323;SDS011;25666;44.350;9.222;2024-01-15T03:55:17;9.23;;;4.70;;
32323;SDS011;25666;44.350;9.222;2024-01-15T03:57:43;12.93;;;5.07;;
32323;SDS011;25666;44.350;9.222;2024-01-15T04:00:09;10.75;;;4.47;;
32323;SDS011;25666;44.350;9.222;2024-01-15T04:02:35;7.20;;;4.22;;
32323;SDS011;25666;44.350;9.222;2024-01-15T04:05:00;8.93;;;4.47;;
32323;SDS011;25666;44.350;9.222;2024-01-15T04:07:26;7.85;;;4.65;;
32323;SDS011;25666;44.350;9.222;2024-01-15T04:09:51;9.10;;;4.78;;
32323;SDS011;25666;44.350;9.222;2024-01-15T04:12:17;15.07;;;4.93;;
32323;SDS011;25666;44.350;9.222;2024-01-15T04:14:42;8.40;;;5.07;;
32323;SDS011;25666;44.350;9.222;2024-01-15T04:17:08;9.55;;;5.10;;
32323;SDS011;25666;44.350;9.222;2024-01-15T04:19:34;12.05;;;5.05;;
32323;SDS011;25666;44.350;9.222;2024-01-15T04:22:00;14.32;;;5.05;;
32323;SDS011;25666;44.350;9.222;2024-01-15T04:24:25;8.18;;;4.82;;
32323;SDS011;25666;44.350;9.222;2024-01-15T04:26:51;9.63;;;4.43;;
32323;SDS011;25666;44.350;9.222;2024-01-15T04:29:16;7.90;;;4.50;;
32323;SDS011;25666;44.350;9.222;2024-01-15T04:31:42;8.77;;;4.30;;
32323;SDS011;25666;44.350;9.222;2024-01-15T04:34:08;9.63;;;4.80;;
32323;SDS011;25666;44.350;9.222;2024-01-15T04:36:38;9.68;;;4.68;;
32323;SDS011;25666;44.350;9.222;2024-01-15T04:41:31;11.55;;;4.95;;
32323;SDS011;25666;44.350;9.222;2024-01-15T04:43:56;11.50;;;5.38;;
32323;SDS011;25666;44.350;9.222;2024-01-15T04:46:22;8.30;;;4.93;;
32323;SDS011;25666;44.350;9.222;2024-01-15T04:48:47;9.82;;;4.50;;
32323;SDS011;25666;44.350;9.222;2024-01-15T04:51:13;16.50;;;7.60;;
32323;SDS011;25666;44.350;9.222;2024-01-15T04:53:38;14.30;;;6.38;;
32323;SDS011;25666;44.350;9.222;2024-01-15T04:56:04;10.70;;;7.05;;
32323;SDS011;25666;44.350;9.222;2024-01-15T04:58:30;12.80;;;5.75;;
32323;SDS011;25666;44.350;9.222;2024-01-15T05:00:55;15.23;;;6.93;;
32323;SDS011;25666;44.350;9.222;2024-01-15T05:03:21;14.23;;;6.80;;
32323;SDS011;25666;44.350;9.222;2024-01-15T05:05:47;8.75;;;5.35;;
32323;SDS011;25666;44.350;9.222;2024-01-15T05:08:12;14.65;;;5.53;;
32323;SDS011;25666;44.350;9.222;2024-01-15T05:10:38;14.13;;;5.32;;
32323;SDS011;25666;44.350;9.222;2024-01-15T05:13:03;15.27;;;6.00;;
32323;SDS011;25666;44.350;9.222;2024-01-15T05:15:29;14.18;;;5.70;;
32323;SDS011;25666;44.350;9.222;2024-01-15T05:17:55;14.43;;;5.13;;
32323;SDS011;25666;44.350;9.222;2024-01-15T05:20:20;9.65;;;5.32;;
32323;SDS011;25666;44.350;9.222;2024-01-15T05:22:46;10.95;;;5.00;;
32323;SDS011;25666;44.350;9.222;2024-01-15T05:25:11;16.38;;;6.43;;
32323;SDS011;25666;44.350;9.222;2024-01-15T05:27:37;14.27;;;6.00;;
32323;SDS011;25666;44.350;9.222;2024-01-15T05:30:03;13.93;;;5.95;;
32323;SDS011;25666;44.350;9.222;2024-01-15T05:32:29;15.50;;;6.72;;
32323;SDS011;25666;44.350;9.222;2024-01-15T05:34:54;11.95;;;6.25;;
32323;SDS011;25666;44.350;9.222;2024-01-15T05:37:21;18.02;;;5.85;;
32323;SDS011;25666;44.350;9.222;2024-01-15T05:39:47;10.98;;;5.57;;
32323;SDS011;25666;44.350;9.222;2024-01-15T05:42:12;9.95;;;5.20;;
32323;SDS011;25666;44.350;9.222;2024-01-15T05:44:38;19.60;;;6.32;;
32323;SDS011;25666;44.350;9.222;2024-01-15T05:47:04;15.90;;;6.82;;
32323;SDS011;25666;44.350;9.222;2024-01-15T05:49:33;10.30;;;5.57;;
32323;SDS011;25666;44.350;9.222;2024-01-15T05:52:00;13.10;;;6.20;;
32323;SDS011;25666;44.350;9.222;2024-01-15T05:54:26;14.05;;;6.20;;
32323;SDS011;25666;44.350;9.222;2024-01-15T05:56:54;12.93;;;6.13;;
32323;SDS011;25666;44.350;9.222;2024-01-15T05:59:21;10.23;;;5.70;;
32323;SDS011;25666;44.350;9.222;2024-01-15T06:01:47;11.15;;;6.18;;
32323;SDS011;25666;44.350;9.222;2024-01-15T06:04:13;12.45;;;7.25;;
32323;SDS011;25666;44.350;9.222;2024-01-15T06:06:38;15.63;;;7.13;;
32323;SDS011;25666;44.350;9.222;2024-01-15T06:09:04;15.85;;;7.60;;
32323;SDS011;25666;44.350;9.222;2024-01-15T06:11:34;17.63;;;7.53;;
32323;SDS011;25666;44.350;9.222;2024-01-15T06:14:00;14.88;;;7.53;;
32323;SDS011;25666;44.350;9.222;2024-01-15T06:16:25;18.92;;;7.93;;
32323;SDS011;25666;44.350;9.222;2024-01-15T06:18:51;17.80;;;7.63;;
32323;SDS011;25666;44.350;9.222;2024-01-15T06:21:17;23.55;;;7.53;;
32323;SDS011;25666;44.350;9.222;2024-01-15T06:23:42;13.80;;;7.10;;
32323;SDS011;25666;44.350;9.222;2024-01-15T06:26:08;10.48;;;6.55;;
32323;SDS011;25666;44.350;9.222;2024-01-15T06:28:36;15.75;;;7.28;;
32323;SDS011;25666;44.350;9.222;2024-01-15T06:31:01;12.38;;;6.88;;
32323;SDS011;25666;44.350;9.222;2024-01-15T06:33:27;12.32;;;7.00;;
32323;SDS011;25666;44.350;9.222;2024-01-15T06:35:53;23.95;;;8.48;;
32323;SDS011;25666;44.350;9.222;2024-01-15T06:38:18;21.38;;;8.57;;
32323;SDS011;25666;44.350;9.222;2024-01-15T06:40:44;16.33;;;8.90;;
32323;SDS011;25666;44.350;9.222;2024-01-15T06:43:11;23.52;;;7.90;;
32323;SDS011;25666;44.350;9.222;2024-01-15T06:45:37;15.30;;;9.07;;
32323;SDS011;25666;44.350;9.222;2024-01-15T06:48:02;14.32;;;6.93;;
32323;SDS011;25666;44.350;9.222;2024-01-15T06:50:28;18.50;;;7.82;;
32323;SDS011;25666;44.350;9.222;2024-01-15T06:52:54;25.30;;;8.43;;
32323;SDS011;25666;44.350;9.222;2024-01-15T06:55:19;19.55;;;7.85;;
32323;SDS011;25666;44.350;9.222;2024-01-15T06:57:45;18.85;;;8.00;;
32323;SDS011;25666;44.350;9.222;2024-01-15T07:00:11;14.85;;;8.38;;
32323;SDS011;25666;44.350;9.222;2024-01-15T07:02:36;25.58;;;7.75;;
32323;SDS011;25666;44.350;9.222;2024-01-15T07:05:02;22.25;;;7.10;;
32323;SDS011;25666;44.350;9.222;2024-01-15T07:07:30;17.25;;;8.13;;
32323;SDS011;25666;44.350;9.222;2024-01-15T07:09:56;15.63;;;7.75;;
32323;SDS011;25666;44.350;9.222;2024-01-15T07:12:21;18.13;;;7.80;;
32323;SDS011;25666;44.350;9.222;2024-01-15T07:14:48;20.63;;;7.88;;
32323;SDS011;25666;44.350;9.222;2024-01-15T07:17:14;15.38;;;7.00;;
32323;SDS011;25666;44.350;9.222;2024-01-15T07:19:40;14.88;;;7.50;;
32323;SDS011;25666;44.350;9.222;2024-01-15T07:22:06;13.13;;;8.63;;
32323;SDS011;25666;44.350;9.222;2024-01-15T07:24:32;15.75;;;7.85;;
32323;SDS011;25666;44.350;9.222;2024-01-15T07:26:59;21.95;;;10.40;;
32323;SDS011;25666;44.350;9.222;2024-01-15T07:29:25;12.68;;;7.80;;
32323;SDS011;25666;44.350;9.222;2024-01-15T07:31:51;17.70;;;7.70;;
32323;SDS011;25666;44.350;9.222;2024-01-15T07:34:17;17.48;;;7.63;;
32323;SDS011;25666;44.350;9.222;2024-01-15T07:36:46;18.42;;;9.50;;
32323;SDS011;25666;44.350;9.222;2024-01-15T07:39:11;25.58;;;9.48;;
32323;SDS011;25666;44.350;9.222;2024-01-15T07:41:37;24.50;;;8.15;;
32323;SDS011;25666;44.350;9.222;2024-01-15T07:44:05;22.75;;;9.48;;
32323;SDS011;25666;44.350;9.222;2024-01-15T07:46:32;17.88;;;7.75;;
32323;SDS011;25666;44.350;9.222;2024-01-15T07:48:57;18.17;;;8.55;;
32323;SDS011;25666;44.350;9.222;2024-01-15T07:51:23;26.13;;;11.50;;
32323;SDS011;25666;44.350;9.222;2024-01-15T07:53:49;14.70;;;8.45;;
32323;SDS011;25666;44.350;9.222;2024-01-15T07:56:15;29.20;;;10.48;;
32323;SDS011;25666;44.350;9.222;2024-01-15T07:58:41;24.27;;;8.95;;
32323;SDS011;25666;44.350;9.222;2024-01-15T08:01:07;18.70;;;7.30;;
32323;SDS011;25666;44.350;9.222;2024-01-15T08:03:33;15.18;;;7.03;;
32323;SDS011;25666;44.350;9.222;2024-01-15T08:05:59;24.33;;;9.10;;
32323;SDS011;25666;44.350;9.222;2024-01-15T08:08:25;16.70;;;9.13;;
32323;SDS011;25666;44.350;9.222;2024-01-15T08:10:54;16.90;;;9.20;;
32323;SDS011;25666;44.350;9.222;2024-01-15T08:13:20;22.10;;;8.38;;
32323;SDS011;25666;44.350;9.222;2024-01-15T08:15:46;23.40;;;10.05;;
32323;SDS011;25666;44.350;9.222;2024-01-15T08:18:11;26.35;;;10.40;;
32323;SDS011;25666;44.350;9.222;2024-01-15T08:20:37;23.75;;;11.68;;
32323;SDS011;25666;44.350;9.222;2024-01-15T08:23:03;28.92;;;11.23;;
32323;SDS011;25666;44.350;9.222;2024-01-15T08:25:29;41.72;;;11.30;;
32323;SDS011;25666;44.350;9.222;2024-01-15T08:27:56;36.13;;;11.85;;
32323;SDS011;25666;44.350;9.222;2024-01-15T08:30:22;30.42;;;11.93;;
32323;SDS011;25666;44.350;9.222;2024-01-15T08:32:54;30.90;;;11.80;;
32323;SDS011;25666;44.350;9.222;2024-01-15T08:35:20;30.67;;;12.35;;
32323;SDS011;25666;44.350;9.222;2024-01-15T08:37:51;30.08;;;12.10;;
32323;SDS011;25666;44.350;9.222;2024-01-15T08:40:19;21.20;;;9.63;;
32323;SDS011;25666;44.350;9.222;2024-01-15T08:42:44;22.05;;;9.00;;
32323;SDS011;25666;44.350;9.222;2024-01-15T08:45:14;26.52;;;9.52;;
32323;SDS011;25666;44.350;9.222;2024-01-15T08:47:39;25.10;;;10.75;;
32323;SDS011;25666;44.350;9.222;2024-01-15T08:50:05;20.15;;;10.13;;
32323;SDS011;25666;44.350;9.222;2024-01-15T08:52:31;23.27;;;9.02;;
32323;SDS011;25666;44.350;9.222;2024-01-15T08:54:57;18.17;;;9.50;;
32323;SDS011;25666;44.350;9.222;2024-01-15T08:57:23;28.23;;;9.88;;
32323;SDS011;25666;44.350;9.222;2024-01-15T08:59:48;21.00;;;8.20;;
32323;SDS011;25666;44.350;9.222;2024-01-15T09:02:14;20.40;;;7.78;;
32323;SDS011;25666;44.350;9.222;2024-01-15T09:04:40;20.52;;;9.13;;
32323;SDS011;25666;44.350;9.222;2024-01-15T09:07:06;21.98;;;9.85;;
32323;SDS011;25666;44.350;9.222;2024-01-15T09:09:32;38.13;;;10.98;;
32323;SDS011;25666;44.350;9.222;2024-01-15T09:11:59;39.92;;;10.48;;
32323;SDS011;25666;44.350;9.222;2024-01-15T09:14:24;25.95;;;11.00;;
32323;SDS011;25666;44.350;9.222;2024-01-15T09:16:52;26.83;;;11.95;;
32323;SDS011;25666;44.350;9.222;2024-01-15T09:19:18;29.05;;;12.80;;
32323;SDS011;25666;44.350;9.222;2024-01-15T09:21:43;18.98;;;9.75;;
32323;SDS011;25666;44.350;9.222;2024-01-15T09:24:09;26.00;;;12.07;;
32323;SDS011;25666;44.350;9.222;2024-01-15T09:26:34;26.73;;;12.38;;
32323;SDS011;25666;44.350;9.222;2024-01-15T09:29:00;36.13;;;14.05;;
32323;SDS011;25666;44.350;9.222;2024-01-15T09:31:26;41.20;;;14.20;;
32323;SDS011;25666;44.350;9.222;2024-01-15T09:33:53;34.95;;;12.95;;
32323;SDS011;25666;44.350;9.222;2024-01-15T09:36:21;31.98;;;15.52;;
32323;SDS011;25666;44.350;9.222;2024-01-15T09:38:48;47.08;;;18.25;;
32323;SDS011;25666;44.350;9.222;2024-01-15T09:41:14;33.08;;;16.50;;
32323;SDS011;25666;44.350;9.222;2024-01-15T09:43:40;43.60;;;19.48;;
32323;SDS011;25666;44.350;9.222;2024-01-15T09:46:06;46.78;;;20.50;;
32323;SDS011;25666;44.350;9.222;2024-01-15T09:48:32;56.90;;;22.13;;
32323;SDS011;25666;44.350;9.222;2024-01-15T09:51:01;46.80;;;19.20;;
32323;SDS011;25666;44.350;9.222;2024-01-15T09:53:27;47.72;;;19.42;;
32323;SDS011;25666;44.350;9.222;2024-01-15T09:55:53;43.40;;;17.90;;
32323;SDS011;25666;44.350;9.222;2024-01-15T09:58:19;31.70;;;17.05;;
32323;SDS011;25666;44.350;9.222;2024-01-15T10:00:46;36.88;;;17.73;;
32323;SDS011;25666;44.350;9.222;2024-01-15T10:03:15;37.38;;;14.50;;
32323;SDS011;25666;44.350;9.222;2024-01-15T10:05:40;33.60;;;12.20;;
32323;SDS011;25666;44.350;9.222;2024-01-15T10:08:06;29.13;;;11.68;;
32323;SDS011;25666;44.350;9.222;2024-01-15T10:10:32;27.35;;;9.93;;
32323;SDS011;25666;44.350;9.222;2024-01-15T10:12:58;24.10;;;10.45;;
32323;SDS011;25666;44.350;9.222;2024-01-15T10:15:27;17.45;;;8.15;;
32323;SDS011;25666;44.350;9.222;2024-01-15T10:17:53;20.05;;;8.10;;
32323;SDS011;25666;44.350;9.222;2024-01-15T10:20:19;29.48;;;7.75;;
32323;SDS011;25666;44.350;9.222;2024-01-15T10:22:47;33.30;;;7.78;;
32323;SDS011;25666;44.350;9.222;2024-01-15T10:25:13;25.95;;;7.75;;
32323;SDS011;25666;44.350;9.222;2024-01-15T10:27:43;19.60;;;7.68;;
32323;SDS011;25666;44.350;9.222;2024-01-15T10:30:12;16.58;;;7.28;;
32323;SDS011;25666;44.350;9.222;2024-01-15T10:32:39;18.15;;;6.40;;
32323;SDS011;25666;44.350;9.222;2024-01-15T10:35:06;15.18;;;6.95;;
32323;SDS011;25666;44.350;9.222;2024-01-15T10:37:33;26.52;;;7.97;;
32323;SDS011;25666;44.350;9.222;2024-01-15T10:40:02;16.05;;;5.80;;
32323;SDS011;25666;44.350;9.222;2024-01-15T10:44:57;10.98;;;4.65;;
32323;SDS011;25666;44.350;9.222;2024-01-15T10:47:22;15.25;;;6.63;;
32323;SDS011;25666;44.350;9.222;2024-01-15T10:49:48;11.35;;;5.43;;
32323;SDS011;25666;44.350;9.222;2024-01-15T10:52:15;13.85;;;6.07;;
32323;SDS011;25666;44.350;9.222;2024-01-15T10:54:40;18.17;;;6.68;;
32323;SDS011;25666;44.350;9.222;2024-01-15T10:57:08;17.27;;;6.40;;
32323;SDS011;25666;44.350;9.222;2024-01-15T10:59:34;19.10;;;6.25;;
32323;SDS011;25666;44.350;9.222;2024-01-15T11:02:01;18.45;;;6.10;;
32323;SDS011;25666;44.350;9.222;2024-01-15T11:04:27;17.38;;;4.70;;
32323;SDS011;25666;44.350;9.222;2024-01-15T11:06:53;9.90;;;4.82;;
32323;SDS011;25666;44.350;9.222;2024-01-15T11:09:20;18.10;;;5.88;;
32323;SDS011;25666;44.350;9.222;2024-01-15T11:11:46;17.38;;;4.55;;
32323;SDS011;25666;44.350;9.222;2024-01-15T11:14:33;11.82;;;5.50;;
32323;SDS011;25666;44.350;9.222;2024-01-15T11:17:07;10.68;;;4.88;;
32323;SDS011;25666;44.350;9.222;2024-01-15T11:19:35;10.07;;;5.25;;
32323;SDS011;25666;44.350;9.222;2024-01-15T11:22:03;11.80;;;5.40;;
32323;SDS011;25666;44.350;9.222;2024-01-15T11:27:09;13.30;;;4.90;;
32323;SDS011;25666;44.350;9.222;2024-01-15T11:29:37;15.48;;;5.78;;
32323;SDS011;25666;44.350;9.222;2024-01-15T11:37:27;13.82;;;5.22;;
32323;SDS011;25666;44.350;9.222;2024-01-15T11:40:12;13.30;;;5.05;;
32323;SDS011;25666;44.350;9.222;2024-01-15T11:42:38;12.98;;;4.93;;
32323;SDS011;25666;44.350;9.222;2024-01-15T11:45:03;16.23;;;4.88;;
32323;SDS011;25666;44.350;9.222;2024-01-15T11:47:52;16.13;;;5.13;;
32323;SDS011;25666;44.350;9.222;2024-01-15T11:50:29;15.63;;;4.57;;
32323;SDS011;25666;44.350;9.222;2024-01-15T11:53:02;14.00;;;4.22;;
32323;SDS011;25666;44.350;9.222;2024-01-15T11:55:35;13.65;;;3.92;;
32323;SDS011;25666;44.350;9.222;2024-01-15T11:58:10;16.33;;;4.90;;
32323;SDS011;25666;44.350;9.222;2024-01-15T12:00:40;13.60;;;4.72;;
32323;SDS011;25666;44.350;9.222;2024-01-15T12:03:07;13.15;;;3.97;;
32323;SDS011;25666;44.350;9.222;2024-01-15T12:05:36;13.55;;;5.63;;
32323;SDS011;25666;44.350;9.222;2024-01-15T12:08:03;9.80;;;4.32;;
32323;SDS011;25666;44.350;9.222;2024-01-15T12:10:29;11.38;;;3.95;;
32323;SDS011;25666;44.350;9.222;2024-01-15T12:13:04;22.25;;;5.20;;
32323;SDS011;25666;44.350;9.222;2024-01-15T12:15:38;9.43;;;4.07;;
32323;SDS011;25666;44.350;9.222;2024-01-15T12:18:06;7.93;;;4.22;;
32323;SDS011;25666;44.350;9.222;2024-01-15T12:20:33;17.40;;;4.75;;
32323;SDS011;25666;44.350;9.222;2024-01-15T12:22:59;19.90;;;4.82;;
32323;SDS011;25666;44.350;9.222;2024-01-15T12:25:25;9.70;;;4.45;;
32323;SDS011;25666;44.350;9.222;2024-01-15T12:27:52;15.32;;;4.63;;
32323;SDS011;25666;44.350;9.222;2024-01-15T12:30:18;16.60;;;4.47;;
32323;SDS011;25666;44.350;9.222;2024-01-15T12:32:44;23.63;;;6.07;;
32323;SDS011;25666;44.350;9.222;2024-01-15T12:35:11;13.27;;;4.47;;
32323;SDS011;25666;44.350;9.222;2024-01-15T12:37:40;15.25;;;4.65;;
32323;SDS011;25666;44.350;9.222;2024-01-15T12:40:06;18.88;;;6.45;;
32323;SDS011;25666;44.350;9.222;2024-01-15T12:42:35;14.52;;;4.93;;
32323;SDS011;25666;44.350;9.222;2024-01-15T12:45:09;13.52;;;4.88;;
32323;SDS011;25666;44.350;9.222;2024-01-15T12:47:36;14.90;;;4.90;;
32323;SDS011;25666;44.350;9.222;2024-01-15T12:50:02;12.95;;;4.97;;
32323;SDS011;25666;44.350;9.222;2024-01-15T12:52:32;10.60;;;4.28;;
32323;SDS011;25666;44.350;9.222;2024-01-15T12:54:58;14.73;;;4.75;;
32323;SDS011;25666;44.350;9.222;2024-01-15T12:57:23;6.82;;;4.40;;
32323;SDS011;25666;44.350;9.222;2024-01-15T12:59:49;12.40;;;4.22;;
32323;SDS011;25666;44.350;9.222;2024-01-15T13:02:15;9.05;;;3.88;;
32323;SDS011;25666;44.350;9.222;2024-01-15T13:04:42;11.23;;;4.82;;
32323;SDS011;25666;44.350;9.222;2024-01-15T13:07:09;7.82;;;4.18;;
32323;SDS011;25666;44.350;9.222;2024-01-15T13:09:34;8.85;;;4.63;;
32323;SDS011;25666;44.350;9.222;2024-01-15T13:12:03;14.02;;;4.68;;
32323;SDS011;25666;44.350;9.222;2024-01-15T13:14:30;12.10;;;4.05;;
32323;SDS011;25666;44.350;9.222;2024-01-15T13:16:56;11.73;;;4.40;;
32323;SDS011;25666;44.350;9.222;2024-01-15T13:19:23;16.92;;;3.97;;
32323;SDS011;25666;44.350;9.222;2024-01-15T13:21:49;16.13;;;5.38;;
32323;SDS011;25666;44.350;9.222;2024-01-15T13:24:18;11.48;;;4.75;;
32323;SDS011;25666;44.350;9.222;2024-01-15T13:26:44;17.30;;;5.05;;
32323;SDS011;25666;44.350;9.222;2024-01-15T13:29:11;13.68;;;4.72;;
32323;SDS011;25666;44.350;9.222;2024-01-15T13:31:36;19.35;;;5.00;;
32323;SDS011;25666;44.350;9.222;2024-01-15T13:34:03;15.50;;;4.80;;
32323;SDS011;25666;44.350;9.222;2024-01-15T13:36:29;17.38;;;4.82;;
32323;SDS011;25666;44.350;9.222;2024-01-15T13:38:54;10.93;;;5.18;;
32323;SDS011;25666;44.350;9.222;2024-01-15T13:41:21;7.88;;;4.65;;
32323;SDS011;25666;44.350;9.222;2024-01-15T13:43:50;14.50;;;4.68;;
32323;SDS011;25666;44.350;9.222;2024-01-15T13:46:18;11.18;;;4.75;;
32323;SDS011;25666;44.350;9.222;2024-01-15T13:48:44;15.65;;;4.78;;
32323;SDS011;25666;44.350;9.222;2024-01-15T13:51:09;15.52;;;5.05;;
32323;SDS011;25666;44.350;9.222;2024-01-15T13:53:39;7.53;;;4.40;;
32323;SDS011;25666;44.350;9.222;2024-01-15T13:56:05;12.95;;;5.18;;
32323;SDS011;25666;44.350;9.222;2024-01-15T13:58:32;11.73;;;4.47;;
32323;SDS011;25666;44.350;9.222;2024-01-15T14:01:00;22.33;;;6.00;;
32323;SDS011;25666;44.350;9.222;2024-01-15T14:03:26;8.23;;;4.43;;
32323;SDS011;25666;44.350;9.222;2024-01-15T14:05:52;6.60;;;3.70;;
32323;SDS011;25666;44.350;9.222;2024-01-15T14:08:17;8.55;;;4.75;;
32323;SDS011;25666;44.350;9.222;2024-01-15T14:10:44;19.40;;;7.57;;
32323;SDS011;25666;44.350;9.222;2024-01-15T14:13:10;11.23;;;5.28;;
32323;SDS011;25666;44.350;9.222;2024-01-15T14:15:36;10.23;;;4.38;;
32323;SDS011;25666;44.350;9.222;2024-01-15T14:18:02;8.85;;;5.40;;
32323;SDS011;25666;44.350;9.222;2024-01-15T14:20:28;10.57;;;5.22;;
32323;SDS011;25666;44.350;9.222;2024-01-15T14:22:53;13.05;;;5.95;;
32323;SDS011;25666;44.350;9.222;2024-01-15T14:25:22;10.68;;;5.82;;
32323;SDS011;25666;44.350;9.222;2024-01-15T14:27:49;10.38;;;4.88;;
32323;SDS011;25666;44.350;9.222;2024-01-15T14:30:15;8.20;;;4.13;;
32323;SDS011;25666;44.350;9.222;2024-01-15T14:32:42;14.75;;;4.72;;
32323;SDS011;25666;44.350;9.222;2024-01-15T14:35:08;12.80;;;5.15;;
32323;SDS011;25666;44.350;9.222;2024-01-15T14:37:37;9.18;;;3.92;;
32323;SDS011;25666;44.350;9.222;2024-01-15T14:40:04;11.15;;;5.60;;
32323;SDS011;25666;44.350;9.222;2024-01-15T14:42:32;10.32;;;5.30;;
32323;SDS011;25666;44.350;9.222;2024-01-15T14:45:00;11.30;;;4.18;;